Terminal Aerodrome Forecast
Issued by NWS Sioux Falls, SD

Home | Current Version | Previous Version | Graphics & Text | Print | Product List | Glossary On
Versions: 1 2 3 4 5 6 7 8 9 10 11 12 13 14
000
FTUS43 KFSD 191503 AAB
TAFFSD
TAF AMD
KFSD 191503Z 1915/2012 02010KT P6SM BKN025
     FM191700 02010KT P6SM SCT025
     FM192100 03008KT P6SM BKN120
     FM200300 05004KT P6SM OVC060
     FM200800 VRB03KT P6SM -RA OVC030=

USA.gov is the U.S. government's official web portal to all federal, state and local government web resources and services.